North San Ysidro, New Mexico
Current Conditions -  °F | °C
As of 10:53 AM on Friday 21 Nov 2014 (Local Time) from KLVS Reporting Station
Clear Clear  
Wind Chill: 50°   Ceiling: Unl
Heat Index: 50°   Visibility: 10mi
Dew Point: 23°   Wind: 3mph
Humidity: 35%   Direction: NA
Pressure: 30.04"   Gusts: NA
Location:  35.4225°N, 105.56°W
Report Text: KLVS 211753Z AUTO VRB03KT 10SM CLR 10/M05 A3004 RMK AO2 SLP132 T01001050 10100 21039 58003
Loading
Personal Weather Stations






























Interactive Weather Map New forecast layout! Learn more

10-Day Weather Forecast

Advertisements
Track Severe Weather on mobile